Time;durP1;ratioP1;P1;durP2;ratioP2;P2;SDS_P1;SDS_P2;PMS_P1;PMS_P2;Temp;Humidity;BMP_temperature;BMP_pressure;BME280_temperature;BME280_humidity;BME280_pressure;Samples;Min_cycle;Max_cycle;Signal;HPM_P1;HPM_P2
2024/01/11 00:00:39;;;;;;;28.00;17.00;;;;;;;1.87;44.84;102579.80;107062;1257;23336;-52
2024/01/11 00:03:07;;;;;;;26.40;15.80;;;;;;;1.91;44.64;102584.61;107049;1262;25328;-52
2024/01/11 00:05:34;;;;;;;29.30;17.30;;;;;;;1.94;44.34;102579.42;107080;1257;25414;-52
2024/01/11 00:08:02;;;;;;;26.10;16.40;;;;;;;1.96;44.22;102578.16;106331;1254;1002964;-51
2024/01/11 00:10:30;;;;;;;29.10;17.40;;;;;;;1.96;43.79;102576.95;106337;1261;1003183;-51
2024/01/11 00:12:57;;;;;;;26.70;16.20;;;;;;;1.96;43.90;102573.72;106121;1259;1003497;-52
2024/01/11 00:15:24;;;;;;;29.10;15.90;;;;;;;1.97;43.77;102573.73;106114;1259;1002545;-51
2024/01/11 00:17:51;;;;;;;24.20;15.00;;;;;;;1.98;43.86;102573.61;107200;1256;25593;-51
2024/01/11 00:20:18;;;;;;;27.50;15.90;;;;;;;1.99;43.64;102575.20;106376;1254;1003423;-51
2024/01/11 00:22:45;;;;;;;25.60;16.10;;;;;;;1.99;43.79;102579.67;107238;1261;25395;-51
2024/01/11 00:25:12;;;;;;;23.40;15.10;;;;;;;2.00;43.57;102579.33;107153;1257;25356;-51
2024/01/11 00:27:39;;;;;;;25.30;14.30;;;;;;;1.98;43.41;102579.79;106912;1259;25346;-52
2024/01/11 00:30:08;;;;;;;23.40;14.80;;;;;;;1.96;43.26;102578.52;107275;1254;25337;-52
2024/01/11 00:32:35;;;;;;;22.50;14.00;;;;;;;1.95;43.14;102577.58;107108;1257;22527;-51
2024/01/11 00:35:03;;;;;;;22.30;14.00;;;;;;;1.92;42.93;102573.19;106423;1261;1003187;-51
2024/01/11 00:37:30;;;;;;;21.70;13.40;;;;;;;1.89;42.61;102569.45;107142;1256;25488;-51
2024/01/11 00:39:58;;;;;;;19.60;13.10;;;;;;;1.86;42.48;102571.23;107052;1266;25347;-51
2024/01/11 00:42:25;;;;;;;20.60;12.90;;;;;;;1.83;42.49;102570.20;106072;1274;1003039;-51
2024/01/11 00:44:52;;;;;;;31.80;21.80;;;;;;;1.79;42.17;102568.02;106472;1264;1003146;-52
2024/01/11 00:47:19;;;;;;;19.20;12.10;;;;;;;1.75;42.21;102564.75;107213;1271;25391;-51
2024/01/11 00:49:46;;;;;;;18.00;12.40;;;;;;;1.71;42.02;102568.69;106349;1257;1003022;-52
2024/01/11 00:52:14;;;;;;;20.20;12.70;;;;;;;1.67;41.77;102572.46;106833;1256;25488;-51
2024/01/11 00:54:41;;;;;;;23.00;12.60;;;;;;;1.63;42.02;102576.23;107124;1257;25366;-51
2024/01/11 00:57:08;;;;;;;19.60;12.40;;;;;;;1.60;41.54;102576.42;107073;1267;25365;-52
2024/01/11 00:59:35;;;;;;;20.20;12.50;;;;;;;1.56;41.69;102575.09;106650;1260;25365;-51
2024/01/11 01:02:03;;;;;;;20.00;12.00;;;;;;;1.55;41.58;102581.15;105863;1266;1003491;-51
2024/01/11 01:04:30;;;;;;;17.70;11.80;;;;;;;1.52;41.53;102584.13;107049;1256;25337;-52
2024/01/11 01:06:57;;;;;;;20.30;12.20;;;;;;;1.48;41.33;102579.86;105904;1267;1002972;-52
2024/01/11 01:09:24;;;;;;;17.80;12.00;;;;;;;1.46;41.43;102579.23;106096;1261;1003291;-52
2024/01/11 01:11:51;;;;;;;20.30;11.90;;;;;;;1.43;41.51;102572.41;106108;1265;1003075;-51
2024/01/11 01:14:18;;;;;;;18.60;12.30;;;;;;;1.40;41.32;102573.13;106132;1266;1003161;-51
2024/01/11 01:16:45;;;;;;;16.80;11.90;;;;;;;1.36;41.24;102569.23;106795;1260;25359;-51
2024/01/11 01:19:12;;;;;;;20.00;12.70;;;;;;;1.33;40.96;102561.89;107045;1257;25394;-51
2024/01/11 01:21:40;;;;;;;20.70;12.00;;;;;;;1.29;41.07;102556.08;106141;1273;1003933;-52
2024/01/11 01:24:07;;;;;;;19.10;12.30;;;;;;;1.25;41.39;102551.29;107168;1263;25357;-51
2024/01/11 01:26:34;;;;;;;22.70;12.30;;;;;;;1.23;41.40;102551.70;107159;1264;25488;-51
2024/01/11 01:29:02;;;;;;;16.30;11.20;;;;;;;1.20;41.40;102551.39;106429;1260;1002669;-51
2024/01/11 01:31:29;;;;;;;20.40;13.10;;;;;;;1.17;41.43;102544.59;106875;1270;25402;-51
2024/01/11 01:33:56;;;;;;;19.40;12.70;;;;;;;1.15;41.40;102535.94;107134;1264;25356;-51
2024/01/11 01:36:23;;;;;;;19.30;12.20;;;;;;;1.13;41.24;102530.90;106301;1267;1003794;-51
2024/01/11 01:38:51;;;;;;;19.90;12.20;;;;;;;1.10;41.10;102530.93;106316;1257;1003938;-51
2024/01/11 01:41:19;;;;;;;23.20;13.60;;;;;;;1.07;41.12;102522.58;107125;1266;25405;-51
2024/01/11 01:43:46;;;;;;;17.70;11.90;;;;;;;1.04;41.13;102511.52;107092;1259;23241;-51
2024/01/11 01:46:14;;;;;;;21.10;13.00;;;;;;;1.03;41.34;102500.86;106826;1261;25418;-51
2024/01/11 01:48:41;;;;;;;20.00;12.30;;;;;;;1.01;41.31;102493.95;107217;1259;22551;-51
2024/01/11 01:51:09;;;;;;;20.50;12.60;;;;;;;0.99;41.20;102492.34;106348;1257;1002907;-52
2024/01/11 01:53:36;;;;;;;17.70;12.30;;;;;;;0.97;41.33;102484.20;106960;1267;25589;-52
2024/01/11 01:56:03;;;;;;;19.30;12.20;;;;;;;0.95;41.38;102478.81;107153;1264;25471;-52
2024/01/11 01:58:30;;;;;;;18.20;12.80;;;;;;;0.92;41.46;102476.48;106358;1260;1003350;-52
2024/01/11 02:00:57;;;;;;;18.80;11.40;;;;;;;0.91;41.43;102471.81;106375;1263;1003422;-51
2024/01/11 02:03:25;;;;;;;21.10;12.20;;;;;;;0.90;41.27;102467.98;106337;1266;1002882;-51
2024/01/11 02:05:53;;;;;;;17.60;10.80;;;;;;;0.87;41.48;102468.05;106106;1268;1003149;-51
2024/01/11 02:08:21;;;;;;;19.70;12.30;;;;;;;0.86;41.29;102465.59;106292;1260;1003810;-51
2024/01/11 02:10:48;;;;;;;18.60;11.50;;;;;;;0.83;41.44;102460.70;106793;1262;25475;-51
2024/01/11 02:13:15;;;;;;;17.60;12.10;;;;;;;0.81;41.38;102457.02;106976;1266;24206;-51
2024/01/11 02:15:45;;;;;;;21.40;12.00;;;;;;;0.79;41.45;102448.38;106839;1260;25485;-52
2024/01/11 02:18:12;;;;;;;19.30;12.40;;;;;;;0.77;41.49;102444.71;106279;1257;1002392;-51
2024/01/11 02:20:39;;;;;;;16.50;11.50;;;;;;;0.76;41.70;102444.83;107107;1255;25356;-51
2024/01/11 02:23:09;;;;;;;19.30;11.90;;;;;;;0.76;41.93;102440.20;106074;1262;1003012;-52
2024/01/11 02:25:36;;;;;;;19.30;11.50;;;;;;;0.76;42.05;102434.60;107166;1256;25233;-51
2024/01/11 02:28:03;;;;;;;19.70;11.50;;;;;;;0.76;42.12;102430.85;107045;1272;24550;-51
2024/01/11 02:30:31;;;;;;;17.80;11.40;;;;;;;0.78;42.22;102423.73;106416;1263;1003740;-51
2024/01/11 02:32:58;;;;;;;18.50;12.90;;;;;;;0.78;42.09;102417.77;106432;1257;1002971;-51
2024/01/11 02:35:26;;;;;;;17.20;11.10;;;;;;;0.79;42.27;102415.59;106837;1264;25347;-51
2024/01/11 02:37:53;;;;;;;15.30;11.00;;;;;;;0.80;42.09;102412.38;106935;1268;24194;-51
2024/01/11 02:40:20;;;;;;;22.50;11.70;;;;;;;0.80;41.96;102406.73;106672;1260;25373;-52
2024/01/11 02:42:47;;;;;;;17.40;12.20;;;;;;;0.78;41.88;102402.23;106151;1253;1002927;-51
2024/01/11 02:45:14;;;;;;;19.80;11.60;;;;;;;0.79;42.07;102400.55;107093;1256;25340;-51
2024/01/11 02:47:42;;;;;;;17.70;11.20;;;;;;;0.79;42.03;102394.92;106000;1257;1003148;-51
2024/01/11 02:50:11;;;;;;;17.20;11.60;;;;;;;0.79;42.02;102396.65;106044;1265;1003780;-51
2024/01/11 02:52:38;;;;;;;18.10;11.70;;;;;;;0.80;42.13;102393.77;107196;1255;25359;-52
2024/01/11 02:55:06;;;;;;;16.10;10.40;;;;;;;0.81;42.06;102390.37;107095;1264;25427;-52
2024/01/11 02:57:32;;;;;;;21.60;11.50;;;;;;;0.81;42.04;102384.59;106211;1266;1015589;-51
2024/01/11 02:59:59;;;;;;;18.50;11.10;;;;;;;0.81;42.07;102386.31;105921;1272;1003360;-51
2024/01/11 03:02:26;;;;;;;18.30;11.70;;;;;;;0.83;42.12;102385.01;106374;1266;1003007;-51
2024/01/11 03:04:54;;;;;;;17.60;10.40;;;;;;;0.84;42.01;102384.37;106187;1254;1002861;-51
2024/01/11 03:07:21;;;;;;;16.70;10.70;;;;;;;0.84;41.85;102384.37;106854;1260;25383;-51
2024/01/11 03:09:48;;;;;;;15.80;10.80;;;;;;;0.84;41.91;102383.20;107016;1260;25445;-51
2024/01/11 03:12:15;;;;;;;18.40;12.10;;;;;;;0.84;41.86;102382.67;106321;1267;1003402;-52
2024/01/11 03:14:42;;;;;;;16.90;11.10;;;;;;;0.84;41.80;102387.98;106339;1257;1003076;-51
2024/01/11 03:17:09;;;;;;;17.70;11.40;;;;;;;0.83;42.00;102390.83;106377;1266;1002913;-52
2024/01/11 03:19:40;;;;;;;17.50;11.70;;;;;;;0.82;41.93;102389.05;107059;1264;25327;-51
2024/01/11 03:22:07;;;;;;;20.70;12.00;;;;;;;0.80;41.83;102383.70;107065;1263;22527;-51
2024/01/11 03:24:39;;;;;;;17.00;10.90;;;;;;;0.80;42.04;102380.80;107124;1257;25353;-51
2024/01/11 03:27:05;;;;;;;17.20;11.10;;;;;;;0.80;42.11;102374.48;107106;1256;24268;-52
2024/01/11 03:29:33;;;;;;;17.70;10.40;;;;;;;0.80;42.04;102372.75;106322;1257;1003387;-51
2024/01/11 03:32:00;;;;;;;19.20;11.50;;;;;;;0.80;42.06;102371.38;107107;1259;22566;-51
2024/01/11 03:34:27;;;;;;;16.60;11.70;;;;;;;0.80;42.39;102367.99;106397;1264;1003746;-52
2024/01/11 03:36:55;;;;;;;19.40;11.80;;;;;;;0.80;42.05;102373.29;106915;1271;25318;-52
2024/01/11 03:39:23;;;;;;;17.50;11.30;;;;;;;0.79;42.26;102368.25;107071;1266;25407;-51
2024/01/11 03:41:50;;;;;;;19.20;11.10;;;;;;;0.78;41.95;102365.48;106422;1263;1003233;-51
2024/01/11 03:44:19;;;;;;;17.60;11.40;;;;;;;0.76;41.97;102365.06;106368;1259;1002970;-52
2024/01/11 03:46:46;;;;;;;17.10;10.90;;;;;;;0.76;42.01;102361.13;107164;1263;25539;-51
2024/01/11 03:49:14;;;;;;;18.80;11.80;;;;;;;0.74;42.16;102361.06;107061;1270;25476;-51
2024/01/11 03:51:41;;;;;;;16.80;11.50;;;;;;;0.74;42.13;102355.60;106406;1257;1003400;-51
2024/01/11 03:54:09;;;;;;;15.90;11.00;;;;;;;0.74;42.13;102353.69;106309;1266;1003661;-51
2024/01/11 03:56:39;;;;;;;20.40;11.50;;;;;;;0.73;42.15;102347.16;106361;1257;1003474;-51
2024/01/11 03:59:06;;;;;;;16.70;12.00;;;;;;;0.72;42.21;102340.31;107134;1257;25453;-51
2024/01/11 04:01:38;;;;;;;19.60;11.60;;;;;;;0.71;42.12;102333.77;106811;1255;25458;-52
2024/01/11 04:04:04;;;;;;;16.60;11.60;;;;;;;0.70;42.03;102326.73;106369;1254;1002892;-52
2024/01/11 04:06:33;;;;;;;17.40;11.10;;;;;;;0.69;41.96;102327.69;107056;1257;25439;-52
2024/01/11 04:09:00;;;;;;;22.60;12.40;;;;;;;0.68;42.07;102327.33;107000;1266;25365;-52
2024/01/11 04:11:28;;;;;;;19.70;11.40;;;;;;;0.67;42.15;102327.46;106333;1270;1003220;-53
2024/01/11 04:13:54;;;;;;;16.60;10.40;;;;;;;0.67;41.93;102325.71;106856;1267;22535;-51
2024/01/11 04:16:22;;;;;;;16.30;10.90;;;;;;;0.65;41.94;102322.72;107081;1257;25375;-52
2024/01/11 04:18:49;;;;;;;18.60;11.60;;;;;;;0.64;41.98;102325.95;107086;1259;25475;-51
2024/01/11 04:21:29;;;;;;;20.00;12.20;;;;;;;0.63;41.99;102319.59;106052;1274;1003079;-51
2024/01/11 04:23:57;;;;;;;15.80;10.30;;;;;;;0.62;42.03;102319.20;106423;1260;1003348;-51
2024/01/11 04:26:24;;;;;;;18.70;11.70;;;;;;;0.62;42.00;102322.24;106881;1261;25356;-52
2024/01/11 04:28:51;;;;;;;20.00;11.50;;;;;;;0.61;42.05;102321.55;106108;1270;1003129;-51
2024/01/11 04:31:19;;;;;;;17.80;11.20;;;;;;;0.61;41.95;102318.79;106878;1254;25356;-51
2024/01/11 04:33:46;;;;;;;22.50;12.60;;;;;;;0.59;42.08;102314.63;106392;1257;1003607;-52
2024/01/11 04:36:13;;;;;;;18.80;11.70;;;;;;;0.58;42.02;102314.21;107199;1262;25347;-51
2024/01/11 04:38:40;;;;;;;18.40;10.70;;;;;;;0.57;42.03;102312.98;106985;1270;25337;-52
2024/01/11 04:41:09;;;;;;;18.80;10.60;;;;;;;0.56;42.04;102310.72;107137;1261;25376;-52
2024/01/11 04:43:39;;;;;;;16.60;10.50;;;;;;;0.53;41.97;102310.61;107117;1266;22527;-52
2024/01/11 04:46:33;;;;;;;18.80;11.40;;;;;;;0.52;41.98;102310.02;107132;1254;22664;-51
2024/01/11 04:49:00;;;;;;;19.80;11.90;;;;;;;0.50;41.95;102303.45;106439;1273;25359;-51
2024/01/11 04:51:28;;;;;;;18.60;11.70;;;;;;;0.47;41.89;102297.02;105726;1264;1015843;-52
2024/01/11 04:53:55;;;;;;;17.60;11.00;;;;;;;0.45;41.99;102296.58;105669;1275;1003191;-51
2024/01/11 04:56:21;;;;;;;17.30;11.50;;;;;;;0.44;41.95;102294.13;105754;1274;1002924;-51
2024/01/11 04:58:49;;;;;;;18.10;11.60;;;;;;;0.42;42.02;102291.02;106568;1272;25824;-52
2024/01/11 05:01:16;;;;;;;19.20;12.30;;;;;;;0.41;42.00;102287.00;106472;1266;25556;-51
2024/01/11 05:03:46;;;;;;;15.40;10.80;;;;;;;0.38;42.07;102282.79;106544;1263;26513;-51
2024/01/11 05:06:19;;;;;;;17.30;11.60;;;;;;;0.37;42.09;102282.41;106459;1260;24285;-52
2024/01/11 05:08:46;;;;;;;18.20;11.20;;;;;;;0.37;42.15;102280.69;105703;1264;1003526;-51
2024/01/11 05:11:21;;;;;;;20.30;11.90;;;;;;;0.35;42.15;102279.05;106433;1276;25385;-52
2024/01/11 05:13:48;;;;;;;18.40;11.30;;;;;;;0.33;42.19;102274.38;106465;1262;24234;-51
2024/01/11 05:16:22;;;;;;;19.00;11.80;;;;;;;0.31;42.12;102267.45;105680;1261;1003205;-51
2024/01/11 05:18:50;;;;;;;17.50;11.30;;;;;;;0.29;42.20;102267.71;105681;1260;1003089;-51
2024/01/11 05:21:18;;;;;;;19.80;11.20;;;;;;;0.27;42.21;102264.21;106561;1260;22563;-52
2024/01/11 05:23:45;;;;;;;18.30;10.90;;;;;;;0.27;42.23;102262.34;106564;1267;25341;-51
2024/01/11 05:26:14;;;;;;;18.50;12.70;;;;;;;0.26;42.31;102258.22;105765;1268;1003556;-51
2024/01/11 05:28:41;;;;;;;20.10;11.40;;;;;;;0.26;42.23;102257.85;107064;1258;25236;-52
2024/01/11 05:31:12;;;;;;;18.20;11.40;;;;;;;0.26;42.30;102261.09;107077;1254;25415;-52
2024/01/11 05:33:39;;;;;;;16.80;10.80;;;;;;;0.26;42.28;102263.30;107003;1256;22523;-51
2024/01/11 05:36:07;;;;;;;18.20;12.10;;;;;;;0.26;42.31;102264.48;106422;1257;1003638;-51
2024/01/11 05:38:35;;;;;;;17.80;11.50;;;;;;;0.26;42.42;102265.16;107237;1251;22527;-51
2024/01/11 05:41:02;;;;;;;18.20;11.20;;;;;;;0.25;42.23;102265.82;107039;1258;25350;-51
2024/01/11 05:43:29;;;;;;;19.10;12.90;;;;;;;0.24;42.10;102270.20;107187;1264;25328;-51
2024/01/11 05:45:56;;;;;;;19.00;11.90;;;;;;;0.23;42.23;102264.70;107099;1251;25375;-51
2024/01/11 05:48:24;;;;;;;17.50;10.80;;;;;;;0.23;42.45;102256.70;106776;1260;25453;-51
2024/01/11 05:50:52;;;;;;;17.70;10.60;;;;;;;0.24;42.44;102263.54;107047;1254;25456;-51
2024/01/11 05:53:20;;;;;;;17.20;11.40;;;;;;;0.24;42.49;102267.33;106166;1251;1003437;-52
2024/01/11 05:55:48;;;;;;;19.00;11.30;;;;;;;0.25;42.68;102263.95;105747;1257;1003544;-52
2024/01/11 05:58:15;;;;;;;20.00;11.50;;;;;;;0.27;42.81;102254.30;106042;1257;1003738;-51
2024/01/11 06:00:42;;;;;;;18.10;10.50;;;;;;;0.28;42.64;102251.98;106898;1257;25810;-51
2024/01/11 06:03:12;;;;;;;19.00;10.70;;;;;;;0.31;42.86;102257.06;106121;1256;1003543;-52
2024/01/11 06:05:39;;;;;;;18.50;11.50;;;;;;;0.34;42.86;102248.66;106438;1256;1003086;-51
2024/01/11 06:08:07;;;;;;;17.00;11.10;;;;;;;0.38;42.86;102247.45;106303;1253;1002828;-51
2024/01/11 06:10:34;;;;;;;19.50;12.00;;;;;;;0.41;42.77;102245.51;107114;1251;25377;-51
2024/01/11 06:13:01;;;;;;;16.80;11.20;;;;;;;0.43;42.72;102248.01;107061;1255;25477;-51
2024/01/11 06:15:28;;;;;;;19.50;11.50;;;;;;;0.45;42.61;102241.09;106354;1257;1002885;-52
2024/01/11 06:17:55;;;;;;;18.70;11.10;;;;;;;0.49;42.79;102239.73;106139;1257;1003042;-52
2024/01/11 06:20:23;;;;;;;18.00;11.60;;;;;;;0.56;42.84;102241.39;107095;1257;25348;-52
2024/01/11 06:22:50;;;;;;;19.30;10.70;;;;;;;0.65;42.70;102230.71;106513;1273;25356;-51
2024/01/11 06:25:18;;;;;;;19.00;12.00;;;;;;;0.78;42.61;102227.84;106263;1257;1003191;-51
2024/01/11 06:27:46;;;;;;;22.80;10.80;;;;;;;0.93;42.22;102225.17;106217;1254;1003023;-51
2024/01/11 06:30:14;;;;;;;19.70;11.10;;;;;;;1.04;42.36;102218.29;107017;1257;25386;-52
2024/01/11 06:32:41;;;;;;;15.50;10.60;;;;;;;1.14;42.12;102217.85;107036;1251;25344;-51
2024/01/11 06:35:09;;;;;;;18.10;11.10;;;;;;;1.23;41.82;102218.71;107196;1251;25414;-52
2024/01/11 06:37:37;;;;;;;15.60;9.70;;;;;;;1.29;41.83;102217.77;107093;1269;25328;-51
2024/01/11 06:40:08;;;;;;;17.40;10.60;;;;;;;1.33;41.82;102215.19;106147;1260;1002955;-51
2024/01/11 06:42:35;;;;;;;16.90;10.30;;;;;;;1.35;41.79;102209.64;107138;1256;22534;-52
2024/01/11 06:45:03;;;;;;;17.30;9.80;;;;;;;1.38;41.78;102207.52;106388;1254;1003519;-52
2024/01/11 06:47:30;;;;;;;15.40;9.80;;;;;;;1.40;41.98;102197.85;106066;1260;1003529;-51
2024/01/11 06:49:59;;;;;;;17.40;10.20;;;;;;;1.41;41.96;102188.66;106843;1257;24207;-51
2024/01/11 06:52:26;;;;;;;15.90;10.20;;;;;;;1.42;41.78;102185.95;107169;1257;25452;-51
2024/01/11 06:54:53;;;;;;;17.40;11.10;;;;;;;1.44;41.95;102188.09;106832;1256;25436;-52
2024/01/11 06:57:20;;;;;;;18.50;10.80;;;;;;;1.47;42.14;102190.07;107047;1256;25328;-51
2024/01/11 06:59:48;;;;;;;20.70;10.90;;;;;;;1.50;42.11;102189.52;107133;1266;25337;-51
2024/01/11 07:02:15;;;;;;;18.30;10.70;;;;;;;1.54;42.04;102187.60;106915;1260;25341;-52
2024/01/11 07:04:44;;;;;;;18.20;10.20;;;;;;;1.58;41.84;102183.48;107078;1266;25478;-52
2024/01/11 07:07:11;;;;;;;16.90;10.10;;;;;;;1.61;42.20;102181.91;106371;1266;1002915;-52
2024/01/11 07:09:39;;;;;;;14.70;9.90;;;;;;;1.66;41.98;102180.54;106321;1267;1002841;-52
2024/01/11 07:12:06;;;;;;;17.60;10.90;;;;;;;1.70;41.72;102178.44;107204;1266;25321;-52
2024/01/11 07:14:33;;;;;;;16.00;9.90;;;;;;;1.72;41.69;102177.84;106387;1267;1003209;-52
2024/01/11 07:17:01;;;;;;;15.40;9.90;;;;;;;1.73;41.43;102174.77;106797;1275;25400;-51
2024/01/11 07:19:28;;;;;;;13.40;8.70;;;;;;;1.72;41.49;102166.36;106515;1257;1002729;-52
2024/01/11 07:21:55;;;;;;;13.30;8.60;;;;;;;1.71;41.57;102164.96;106483;1257;1003429;-52
2024/01/11 07:24:22;;;;;;;14.80;9.40;;;;;;;1.69;41.55;102164.70;107105;1266;25350;-51
2024/01/11 07:26:50;;;;;;;16.50;10.20;;;;;;;1.67;41.52;102151.98;107134;1253;25340;-51
2024/01/11 07:29:17;;;;;;;13.30;9.00;;;;;;;1.66;41.56;102148.04;106062;1272;1003060;-51
2024/01/11 07:31:44;;;;;;;15.50;10.00;;;;;;;1.66;41.79;102139.14;106934;1267;23854;-52
2024/01/11 07:34:11;;;;;;;16.70;10.10;;;;;;;1.68;41.98;102131.84;107067;1265;25349;-52
2024/01/11 07:36:39;;;;;;;12.80;8.40;;;;;;;1.70;42.10;102125.76;107115;1254;25325;-52
2024/01/11 07:39:06;;;;;;;15.40;8.70;;;;;;;1.73;42.01;102125.36;106761;1260;25328;-52
2024/01/11 07:41:33;;;;;;;15.70;8.70;;;;;;;1.75;42.23;102120.47;106815;1257;25356;-51
2024/01/11 07:44:00;;;;;;;11.50;8.00;;;;;;;1.78;42.32;102124.69;106344;1256;1002948;-52
2024/01/11 07:46:27;;;;;;;13.80;8.30;;;;;;;1.82;42.45;102118.65;107079;1257;25440;-52
2024/01/11 07:49:06;;;;;;;12.30;7.90;;;;;;;1.86;42.43;102116.59;106806;1257;22530;-51
2024/01/11 07:51:34;;;;;;;13.60;8.80;;;;;;;1.92;42.55;102111.14;107099;1261;25379;-52
2024/01/11 07:54:02;;;;;;;15.70;9.00;;;;;;;1.98;42.60;102106.40;107141;1263;25510;-51
2024/01/11 07:56:29;;;;;;;15.60;8.60;;;;;;;2.04;42.28;102104.72;106396;1257;1015503;-52
2024/01/11 07:58:57;;;;;;;14.70;8.30;;;;;;;2.10;42.36;102100.65;106906;1253;25493;-51
2024/01/11 08:01:24;;;;;;;12.30;7.90;;;;;;;2.16;42.57;102093.85;106460;1256;1003142;-51
2024/01/11 08:03:52;;;;;;;17.50;9.30;;;;;;;2.22;42.37;102086.85;106328;1267;1003197;-51
2024/01/11 08:06:20;;;;;;;13.10;7.70;;;;;;;2.26;42.38;102085.80;107106;1267;24199;-52
2024/01/11 08:08:51;;;;;;;12.40;8.00;;;;;;;2.32;42.62;102082.90;106345;1266;1003743;-51
2024/01/11 08:11:18;;;;;;;11.40;7.20;;;;;;;2.38;42.58;102078.48;107023;1267;25371;-51
2024/01/11 08:13:46;;;;;;;11.20;7.70;;;;;;;2.43;42.46;102077.46;106801;1266;25362;-51
2024/01/11 08:16:17;;;;;;;10.20;7.40;;;;;;;2.49;42.51;102072.00;107104;1259;22530;-51
2024/01/11 08:18:45;;;;;;;12.90;8.10;;;;;;;2.55;42.50;102072.36;106400;1256;1003551;-51
2024/01/11 08:21:12;;;;;;;11.10;7.30;;;;;;;2.62;42.56;102069.66;106327;1274;1003429;-52
2024/01/11 08:23:44;;;;;;;11.90;7.30;;;;;;;2.70;42.48;102063.21;107005;1267;25340;-51
2024/01/11 08:26:13;;;;;;;11.80;7.50;;;;;;;2.78;42.50;102064.15;106422;1266;1004959;-52
2024/01/11 08:28:41;;;;;;;14.80;6.70;;;;;;;2.84;42.33;102059.22;106880;1263;25356;-51
2024/01/11 08:31:09;;;;;;;12.40;6.50;;;;;;;2.89;41.97;102052.19;107161;1266;24020;-52
2024/01/11 08:33:36;;;;;;;13.90;7.70;;;;;;;2.96;42.12;102049.45;107079;1266;24359;-51
2024/01/11 08:36:06;;;;;;;9.90;7.00;;;;;;;3.01;41.88;102043.45;107155;1256;25337;-51
2024/01/11 08:38:33;;;;;;;11.90;6.90;;;;;;;3.09;41.98;102042.81;106796;1260;22534;-51
2024/01/11 08:41:00;;;;;;;12.10;7.00;;;;;;;3.15;41.78;102035.63;106880;1260;25372;-51
2024/01/11 08:43:28;;;;;;;9.70;6.60;;;;;;;3.21;41.43;102036.33;106844;1270;25517;-51
2024/01/11 08:45:55;;;;;;;9.90;6.30;;;;;;;3.28;41.20;102036.52;106404;1257;1003285;-52
2024/01/11 08:48:22;;;;;;;11.00;6.40;;;;;;;3.35;41.07;102037.39;106761;1267;25942;-51
2024/01/11 08:50:49;;;;;;;10.70;6.40;;;;;;;3.40;40.95;102037.71;107149;1258;25341;-51
2024/01/11 08:53:17;;;;;;;9.10;6.00;;;;;;;3.47;41.01;102032.77;107104;1255;25487;-52
2024/01/11 08:55:44;;;;;;;10.20;6.60;;;;;;;3.54;40.90;102026.76;106464;1266;1003664;-51
2024/01/11 08:58:13;;;;;;;12.30;6.80;;;;;;;3.61;40.69;102021.63;107065;1257;25291;-51
2024/01/11 09:00:40;;;;;;;12.90;8.00;;;;;;;3.66;40.58;102021.44;107126;1253;25458;-52
2024/01/11 09:03:08;;;;;;;11.10;6.80;;;;;;;3.73;40.50;102018.52;106761;1256;25332;-52
2024/01/11 09:05:36;;;;;;;11.60;6.40;;;;;;;3.79;40.32;102006.84;106375;1267;1002922;-51
2024/01/11 09:08:06;;;;;;;9.30;5.90;;;;;;;3.86;40.32;102010.63;106341;1250;1003184;-51
2024/01/11 09:10:33;;;;;;;10.40;6.20;;;;;;;3.92;40.10;102004.43;107112;1257;25328;-51
2024/01/11 09:13:00;;;;;;;8.60;6.00;;;;;;;3.99;39.70;101996.86;107106;1257;25405;-51
2024/01/11 09:15:27;;;;;;;12.40;6.90;;;;;;;4.05;39.60;101990.85;107162;1258;25331;-51
2024/01/11 09:17:55;;;;;;;12.60;6.40;;;;;;;4.11;39.63;101984.48;106242;1259;1002697;-52
2024/01/11 09:20:22;;;;;;;8.40;5.60;;;;;;;4.17;39.31;101983.94;107049;1257;25427;-52
2024/01/11 09:22:49;;;;;;;9.80;5.60;;;;;;;4.23;39.18;101981.83;107061;1250;25366;-52
2024/01/11 09:25:17;;;;;;;11.00;6.00;;;;;;;4.27;39.00;101969.21;107228;1258;25458;-52
2024/01/11 09:27:44;;;;;;;8.60;5.50;;;;;;;4.32;38.84;101959.37;106149;1258;1003735;-51
2024/01/11 09:30:11;;;;;;;7.60;4.90;;;;;;;4.37;38.72;101955.19;106277;1257;1005018;-52
2024/01/11 09:32:41;;;;;;;8.30;5.30;;;;;;;4.41;38.62;101947.05;107215;1257;25325;-52
2024/01/11 09:35:08;;;;;;;8.10;5.20;;;;;;;4.45;38.62;101943.70;106818;1270;25337;-52
2024/01/11 09:37:37;;;;;;;8.30;5.10;;;;;;;4.50;38.56;101938.80;106355;1263;1003665;-51
2024/01/11 09:40:10;;;;;;;7.20;4.90;;;;;;;4.55;38.59;101935.83;107034;1266;25408;-51
2024/01/11 09:42:37;;;;;;;9.10;5.50;;;;;;;4.62;38.46;101932.55;106412;1254;1003708;-52
2024/01/11 09:45:13;;;;;;;8.40;5.30;;;;;;;4.68;38.33;101925.30;106406;1266;1003243;-52
2024/01/11 09:47:41;;;;;;;8.30;5.40;;;;;;;4.77;38.46;101924.79;106476;1266;1003768;-52
2024/01/11 09:50:08;;;;;;;8.80;5.20;;;;;;;4.84;38.23;101916.66;106890;1270;24408;-52
2024/01/11 09:52:36;;;;;;;7.60;5.00;;;;;;;4.91;38.16;101908.22;106734;1275;25429;-51
2024/01/11 09:55:04;;;;;;;7.20;4.70;;;;;;;5.00;37.77;101903.76;106798;1257;24250;-52
2024/01/11 09:57:32;;;;;;;7.70;4.10;;;;;;;5.04;37.73;101896.77;106516;1275;25352;-52
2024/01/11 09:59:59;;;;;;;10.10;4.60;;;;;;;5.08;37.76;101888.77;106742;1259;25386;-52
2024/01/11 10:02:26;;;;;;;7.00;4.80;;;;;;;5.14;37.53;101888.36;106005;1272;1003687;-52
2024/01/11 10:04:55;;;;;;;6.30;4.80;;;;;;;5.20;37.43;101878.48;106809;1256;25364;-52
2024/01/11 10:07:22;;;;;;;6.20;4.00;;;;;;;5.25;37.38;101874.98;106847;1256;25418;-52
2024/01/11 10:09:51;;;;;;;8.10;4.20;;;;;;;5.29;37.08;101871.60;106680;1256;22543;-52
2024/01/11 10:12:20;;;;;;;5.60;3.80;;;;;;;5.35;37.20;101873.08;106014;1270;1003660;-51
2024/01/11 10:14:47;;;;;;;8.50;3.90;;;;;;;5.41;37.09;101867.86;106795;1256;25677;-52
2024/01/11 10:17:14;;;;;;;6.80;3.90;;;;;;;5.47;37.16;101860.04;106075;1270;1003943;-52
2024/01/11 10:19:48;;;;;;;6.00;4.00;;;;;;;5.53;37.20;101857.73;106836;1270;25412;-52
2024/01/11 10:22:17;;;;;;;7.00;4.10;;;;;;;5.58;37.23;101851.11;107069;1266;25487;-52
2024/01/11 10:24:44;;;;;;;5.60;3.80;;;;;;;5.63;36.86;101843.61;107019;1267;25372;-52
2024/01/11 10:27:11;;;;;;;6.30;3.80;;;;;;;5.65;36.72;101842.63;107035;1272;25432;-51
2024/01/11 10:29:38;;;;;;;5.60;3.70;;;;;;;5.68;36.58;101838.86;106306;1266;1003321;-52
2024/01/11 10:32:06;;;;;;;5.60;3.90;;;;;;;5.71;36.28;101830.30;107102;1266;25799;-51
2024/01/11 10:34:33;;;;;;;9.30;3.50;;;;;;;5.75;36.33;101826.74;106361;1255;1015814;-51
2024/01/11 10:37:00;;;;;;;5.90;4.10;;;;;;;5.80;36.15;101829.77;107079;1267;25248;-52
2024/01/11 10:39:27;;;;;;;4.90;3.30;;;;;;;5.87;36.17;101825.24;106447;1267;1003372;-51
2024/01/11 10:42:04;;;;;;;5.40;3.50;;;;;;;5.92;35.70;101816.36;107006;1269;22575;-51
2024/01/11 10:44:34;;;;;;;5.70;3.60;;;;;;;5.97;35.79;101807.98;107052;1266;25388;-51
2024/01/11 10:47:03;;;;;;;5.90;3.80;;;;;;;6.02;35.77;101808.40;106312;1255;1003230;-51
2024/01/11 10:49:30;;;;;;;6.20;3.90;;;;;;;6.08;35.65;101802.27;107149;1255;25319;-51
2024/01/11 10:51:59;;;;;;;5.10;3.20;;;;;;;6.13;35.69;101792.71;105846;1262;1003041;-51
2024/01/11 10:54:27;;;;;;;8.80;4.00;;;;;;;6.19;35.40;101784.49;107142;1266;25353;-51
2024/01/11 10:56:54;;;;;;;4.80;3.50;;;;;;;6.21;34.78;101779.88;106414;1266;1005697;-50
2024/01/11 10:59:25;;;;;;;6.30;3.50;;;;;;;6.23;34.81;101776.45;106530;1266;1002955;-51
2024/01/11 11:01:58;;;;;;;4.90;3.60;;;;;;;6.25;35.24;101776.67;107134;1255;24197;-51
2024/01/11 11:04:25;;;;;;;6.50;3.80;;;;;;;6.31;34.98;101777.26;106945;1266;24467;-51
2024/01/11 11:06:58;;;;;;;6.50;4.10;;;;;;;6.38;35.08;101777.33;107084;1266;25334;-51
2024/01/11 11:09:27;;;;;;;5.00;3.80;;;;;;;6.45;34.46;101768.63;107133;1270;22530;-51